Nearby METAR Reports

 

CYOW - Ottawa Intl, Ontario, Canada
Distance from station: N 33km
Updated: Tue, 22-Oct-2019 6:00pm EDT
Rain, Mist, Overcast
Rain, Mist, Overcast
 Wind from E
Wind: E 7 km/h
Temperature: 11°C
Dew Point: 11°C
Humidity: 100%
Barometer: 29.80 inHg , 1009.1 hPa
Summary: Rain, Mist
Clouds: Overcast
Visibility: 4 km
Cloud details: Overcast 244 m
2019/10/22 22:00 CYOW 222200Z 09004KT 2 1/2SM RA BR OVC008 11/11 A2980 RMK FG2SF6 /R10/ SLP095
CYGK - Kingston Arpt, Ontario, Canada
Distance from station: SW 117km
Updated: Tue, 22-Oct-2019 6:00pm EDT
Light rain, Mist, Overcast
Light rain, Mist, Overcast
 Wind from SE
Wind: SE 37 km/h, Gust: 46 km/h
Temperature: 12°C
Dew Point: 12°C
Humidity: 100%
Barometer: 29.75 inHg , 1007.5 hPa
Summary: Light rain, Mist
Clouds: Overcast
Visibility: 5 km
Cloud details: Partly cloudy 122 m
Overcast 610 m
2019/10/22 22:00 CYGK 222200Z 14020G25KT 3SM -RA BR SCT004 OVC020 12/12 A2975 RMK SF4SC4 CIG RAG PRESFR SLP077
KMSS - Massena, New York, USA
Distance from station: E 62km
Updated: Tue, 22-Oct-2019 5:53pm EDT
Rain, Overcast
Rain, Overcast
 Wind from S
Wind: S 13 km/h
Temperature: 14°C
Dew Point: 9°C
Humidity: 72%
Barometer: 29.83 inHg , 1010.2 hPa
Summary: Rain
Clouds: Overcast
Visibility: 11 km
Cloud details: Partly cloudy 1280 m
Overcast 1676 m
2019/10/22 21:53 KMSS 222153Z AUTO 18007KT 7SM RA SCT042 OVC055 14/09 A2983 RMK AO2 RAB10 SLP104 P0002 T01440089